sensor_id;sensor_type;location;lat;lon;timestamp;P1;durP1;ratioP1;P2;durP2;ratioP2
39208;SDS011;24929;51.982;4.664;2022-09-09T00:01:57;3.30;;;2.85;;
39208;SDS011;24929;51.982;4.664;2022-09-09T00:04:29;3.30;;;2.75;;
39208;SDS011;24929;51.982;4.664;2022-09-09T00:09:27;5.10;;;2.90;;
39208;SDS011;24929;51.982;4.664;2022-09-09T00:16:45;8.93;;;2.87;;
39208;SDS011;24929;51.982;4.664;2022-09-09T00:19:15;8.05;;;3.60;;
39208;SDS011;24929;51.982;4.664;2022-09-09T00:22:08;4.40;;;3.50;;
39208;SDS011;24929;51.982;4.664;2022-09-09T00:24:41;3.15;;;2.85;;
39208;SDS011;24929;51.982;4.664;2022-09-09T00:27:09;4.47;;;3.40;;
39208;SDS011;24929;51.982;4.664;2022-09-09T00:32:11;5.68;;;3.92;;
39208;SDS011;24929;51.982;4.664;2022-09-09T00:34:37;4.10;;;3.75;;
39208;SDS011;24929;51.982;4.664;2022-09-09T00:37:04;4.80;;;3.63;;
39208;SDS011;24929;51.982;4.664;2022-09-09T00:39:41;6.93;;;3.97;;
39208;SDS011;24929;51.982;4.664;2022-09-09T00:42:21;6.63;;;4.13;;
39208;SDS011;24929;51.982;4.664;2022-09-09T00:50:06;6.47;;;3.60;;
39208;SDS011;24929;51.982;4.664;2022-09-09T00:52:48;5.55;;;3.78;;
39208;SDS011;24929;51.982;4.664;2022-09-09T00:57:43;4.72;;;4.32;;
39208;SDS011;24929;51.982;4.664;2022-09-09T01:00:24;5.40;;;4.25;;
39208;SDS011;24929;51.982;4.664;2022-09-09T01:02:56;4.32;;;3.92;;
39208;SDS011;24929;51.982;4.664;2022-09-09T01:07:55;7.88;;;4.40;;
39208;SDS011;24929;51.982;4.664;2022-09-09T01:10:41;4.32;;;3.55;;
39208;SDS011;24929;51.982;4.664;2022-09-09T01:13:31;3.75;;;3.38;;
39208;SDS011;24929;51.982;4.664;2022-09-09T01:15:57;3.80;;;3.42;;
39208;SDS011;24929;51.982;4.664;2022-09-09T01:18:25;4.82;;;3.28;;
39208;SDS011;24929;51.982;4.664;2022-09-09T01:21:14;5.75;;;3.95;;
39208;SDS011;24929;51.982;4.664;2022-09-09T01:24:20;4.15;;;3.05;;
39208;SDS011;24929;51.982;4.664;2022-09-09T01:26:37;3.90;;;3.28;;
39208;SDS011;24929;51.982;4.664;2022-09-09T01:29:06;5.25;;;3.83;;
39208;SDS011;24929;51.982;4.664;2022-09-09T01:31:36;6.80;;;4.20;;
39208;SDS011;24929;51.982;4.664;2022-09-09T01:34:01;4.72;;;3.38;;
39208;SDS011;24929;51.982;4.664;2022-09-09T01:38:55;5.53;;;3.05;;
39208;SDS011;24929;51.982;4.664;2022-09-09T01:41:20;7.93;;;3.37;;
39208;SDS011;24929;51.982;4.664;2022-09-09T01:43:45;6.15;;;3.38;;
39208;SDS011;24929;51.982;4.664;2022-09-09T01:46:10;9.43;;;3.53;;
39208;SDS011;24929;51.982;4.664;2022-09-09T01:48:37;6.05;;;3.53;;
39208;SDS011;24929;51.982;4.664;2022-09-09T01:51:02;3.80;;;3.42;;
39208;SDS011;24929;51.982;4.664;2022-09-09T01:53:27;4.57;;;3.35;;
39208;SDS011;24929;51.982;4.664;2022-09-09T02:04:21;5.70;;;4.03;;
39208;SDS011;24929;51.982;4.664;2022-09-09T02:06:48;4.30;;;3.33;;
39208;SDS011;24929;51.982;4.664;2022-09-09T02:09:14;6.85;;;3.70;;
39208;SDS011;24929;51.982;4.664;2022-09-09T02:11:40;7.05;;;3.25;;
39208;SDS011;24929;51.982;4.664;2022-09-09T02:14:08;5.97;;;3.72;;
39208;SDS011;24929;51.982;4.664;2022-09-09T02:16:39;6.43;;;3.85;;
39208;SDS011;24929;51.982;4.664;2022-09-09T02:19:09;3.25;;;2.65;;
39208;SDS011;24929;51.982;4.664;2022-09-09T02:24:05;6.30;;;3.35;;
39208;SDS011;24929;51.982;4.664;2022-09-09T02:26:33;3.90;;;3.50;;
39208;SDS011;24929;51.982;4.664;2022-09-09T02:29:01;6.40;;;3.75;;
39208;SDS011;24929;51.982;4.664;2022-09-09T02:31:27;6.93;;;3.95;;
39208;SDS011;24929;51.982;4.664;2022-09-09T02:33:54;4.75;;;3.47;;
39208;SDS011;24929;51.982;4.664;2022-09-09T02:36:20;4.68;;;4.05;;
39208;SDS011;24929;51.982;4.664;2022-09-09T02:38:48;5.40;;;3.63;;
39208;SDS011;24929;51.982;4.664;2022-09-09T02:41:16;4.82;;;3.30;;
39208;SDS011;24929;51.982;4.664;2022-09-09T02:43:41;6.72;;;4.10;;
39208;SDS011;24929;51.982;4.664;2022-09-09T02:46:23;7.30;;;4.78;;
39208;SDS011;24929;51.982;4.664;2022-09-09T02:56:21;7.82;;;3.95;;
39208;SDS011;24929;51.982;4.664;2022-09-09T02:58:47;8.90;;;3.42;;
39208;SDS011;24929;51.982;4.664;2022-09-09T03:01:14;6.25;;;4.15;;
39208;SDS011;24929;51.982;4.664;2022-09-09T03:03:39;8.68;;;4.63;;
39208;SDS011;24929;51.982;4.664;2022-09-09T03:06:06;4.50;;;4.10;;
39208;SDS011;24929;51.982;4.664;2022-09-09T03:08:31;5.03;;;3.60;;
39208;SDS011;24929;51.982;4.664;2022-09-09T03:10:58;6.60;;;4.53;;
39208;SDS011;24929;51.982;4.664;2022-09-09T03:13:23;6.30;;;3.78;;
39208;SDS011;24929;51.982;4.664;2022-09-09T03:15:50;6.63;;;4.43;;
39208;SDS011;24929;51.982;4.664;2022-09-09T03:18:16;5.90;;;4.32;;
39208;SDS011;24929;51.982;4.664;2022-09-09T03:20:41;4.63;;;3.83;;
39208;SDS011;24929;51.982;4.664;2022-09-09T03:23:07;5.00;;;3.93;;
39208;SDS011;24929;51.982;4.664;2022-09-09T03:25:32;4.68;;;4.05;;
39208;SDS011;24929;51.982;4.664;2022-09-09T03:27:58;7.68;;;4.43;;
39208;SDS011;24929;51.982;4.664;2022-09-09T03:30:24;6.93;;;4.55;;
39208;SDS011;24929;51.982;4.664;2022-09-09T03:32:49;5.40;;;4.63;;
39208;SDS011;24929;51.982;4.664;2022-09-09T03:35:15;6.88;;;4.93;;
39208;SDS011;24929;51.982;4.664;2022-09-09T03:37:40;7.05;;;4.53;;
39208;SDS011;24929;51.982;4.664;2022-09-09T03:40:06;6.22;;;4.60;;
39208;SDS011;24929;51.982;4.664;2022-09-09T03:42:32;5.20;;;4.70;;
39208;SDS011;24929;51.982;4.664;2022-09-09T03:44:57;6.33;;;4.53;;
39208;SDS011;24929;51.982;4.664;2022-09-09T03:47:24;7.68;;;4.57;;
39208;SDS011;24929;51.982;4.664;2022-09-09T03:49:49;7.67;;;4.27;;
39208;SDS011;24929;51.982;4.664;2022-09-09T03:52:15;3.73;;;3.43;;
39208;SDS011;24929;51.982;4.664;2022-09-09T03:54:40;5.50;;;3.38;;
39208;SDS011;24929;51.982;4.664;2022-09-09T03:57:07;8.82;;;3.95;;
39208;SDS011;24929;51.982;4.664;2022-09-09T03:59:33;5.90;;;3.53;;
39208;SDS011;24929;51.982;4.664;2022-09-09T04:02:00;10.35;;;4.28;;
39208;SDS011;24929;51.982;4.664;2022-09-09T04:04:25;3.47;;;3.15;;
39208;SDS011;24929;51.982;4.664;2022-09-09T04:06:51;5.28;;;3.95;;
39208;SDS011;24929;51.982;4.664;2022-09-09T04:09:16;3.90;;;3.25;;
39208;SDS011;24929;51.982;4.664;2022-09-09T04:11:41;4.27;;;3.03;;
39208;SDS011;24929;51.982;4.664;2022-09-09T04:14:07;9.67;;;3.10;;
39208;SDS011;24929;51.982;4.664;2022-09-09T04:16:32;3.10;;;2.50;;
39208;SDS011;24929;51.982;4.664;2022-09-09T04:18:58;6.03;;;3.08;;
39208;SDS011;24929;51.982;4.664;2022-09-09T04:21:24;4.22;;;3.20;;
39208;SDS011;24929;51.982;4.664;2022-09-09T04:23:49;5.07;;;2.30;;
39208;SDS011;24929;51.982;4.664;2022-09-09T04:26:15;2.58;;;2.17;;
39208;SDS011;24929;51.982;4.664;2022-09-09T04:28:41;2.80;;;2.50;;
39208;SDS011;24929;51.982;4.664;2022-09-09T04:31:10;4.28;;;3.30;;
39208;SDS011;24929;51.982;4.664;2022-09-09T04:33:36;2.38;;;2.17;;
39208;SDS011;24929;51.982;4.664;2022-09-09T04:36:03;3.90;;;2.28;;
39208;SDS011;24929;51.982;4.664;2022-09-09T04:38:28;3.13;;;2.42;;
39208;SDS011;24929;51.982;4.664;2022-09-09T04:40:54;3.03;;;2.15;;
39208;SDS011;24929;51.982;4.664;2022-09-09T04:43:19;6.53;;;2.10;;
39208;SDS011;24929;51.982;4.664;2022-09-09T04:45:48;1.85;;;1.75;;
39208;SDS011;24929;51.982;4.664;2022-09-09T04:48:14;6.68;;;2.33;;
39208;SDS011;24929;51.982;4.664;2022-09-09T04:50:39;5.47;;;2.22;;
39208;SDS011;24929;51.982;4.664;2022-09-09T04:53:05;2.92;;;1.92;;
39208;SDS011;24929;51.982;4.664;2022-09-09T04:55:31;3.03;;;2.00;;
39208;SDS011;24929;51.982;4.664;2022-09-09T04:57:57;4.05;;;2.00;;
39208;SDS011;24929;51.982;4.664;2022-09-09T05:00:25;3.80;;;1.77;;
39208;SDS011;24929;51.982;4.664;2022-09-09T05:02:50;2.73;;;2.20;;
39208;SDS011;24929;51.982;4.664;2022-09-09T05:05:16;3.65;;;2.00;;
39208;SDS011;24929;51.982;4.664;2022-09-09T05:07:41;2.83;;;1.85;;
39208;SDS011;24929;51.982;4.664;2022-09-09T05:10:06;3.95;;;2.65;;
39208;SDS011;24929;51.982;4.664;2022-09-09T05:12:32;2.78;;;2.55;;
39208;SDS011;24929;51.982;4.664;2022-09-09T05:14:57;5.43;;;2.65;;
39208;SDS011;24929;51.982;4.664;2022-09-09T05:17:23;2.37;;;2.13;;
39208;SDS011;24929;51.982;4.664;2022-09-09T05:19:48;3.42;;;2.08;;
39208;SDS011;24929;51.982;4.664;2022-09-09T05:22:17;3.72;;;2.45;;
39208;SDS011;24929;51.982;4.664;2022-09-09T05:24:43;3.25;;;2.22;;
39208;SDS011;24929;51.982;4.664;2022-09-09T05:27:09;3.10;;;2.08;;
39208;SDS011;24929;51.982;4.664;2022-09-09T05:29:37;3.95;;;2.38;;
39208;SDS011;24929;51.982;4.664;2022-09-09T05:32:02;8.23;;;2.45;;
39208;SDS011;24929;51.982;4.664;2022-09-09T05:34:28;4.15;;;2.10;;
39208;SDS011;24929;51.982;4.664;2022-09-09T05:36:54;6.05;;;2.42;;
39208;SDS011;24929;51.982;4.664;2022-09-09T05:39:19;5.95;;;2.60;;
39208;SDS011;24929;51.982;4.664;2022-09-09T05:41:44;3.13;;;2.40;;
39208;SDS011;24929;51.982;4.664;2022-09-09T05:44:09;6.23;;;2.73;;
39208;SDS011;24929;51.982;4.664;2022-09-09T05:46:35;3.58;;;2.22;;
39208;SDS011;24929;51.982;4.664;2022-09-09T05:49:00;3.97;;;2.40;;
39208;SDS011;24929;51.982;4.664;2022-09-09T05:51:27;6.05;;;2.13;;
39208;SDS011;24929;51.982;4.664;2022-09-09T05:53:54;3.05;;;2.28;;
39208;SDS011;24929;51.982;4.664;2022-09-09T05:56:27;7.45;;;2.38;;
39208;SDS011;24929;51.982;4.664;2022-09-09T05:58:53;3.55;;;1.98;;
39208;SDS011;24929;51.982;4.664;2022-09-09T06:01:20;6.15;;;2.08;;
39208;SDS011;24929;51.982;4.664;2022-09-09T06:03:46;3.10;;;2.00;;
39208;SDS011;24929;51.982;4.664;2022-09-09T06:06:15;5.63;;;2.10;;
39208;SDS011;24929;51.982;4.664;2022-09-09T06:08:42;4.10;;;2.50;;
39208;SDS011;24929;51.982;4.664;2022-09-09T06:11:12;7.68;;;2.30;;
39208;SDS011;24929;51.982;4.664;2022-09-09T06:13:37;5.05;;;1.95;;
39208;SDS011;24929;51.982;4.664;2022-09-09T06:16:04;5.30;;;2.03;;
39208;SDS011;24929;51.982;4.664;2022-09-09T06:18:29;2.28;;;1.92;;
39208;SDS011;24929;51.982;4.664;2022-09-09T06:20:55;2.87;;;1.40;;
39208;SDS011;24929;51.982;4.664;2022-09-09T06:23:21;6.50;;;1.70;;
39208;SDS011;24929;51.982;4.664;2022-09-09T06:25:46;2.50;;;1.80;;
39208;SDS011;24929;51.982;4.664;2022-09-09T06:28:13;2.58;;;1.77;;
39208;SDS011;24929;51.982;4.664;2022-09-09T06:34:14;1.63;;;1.42;;
39208;SDS011;24929;51.982;4.664;2022-09-09T06:36:40;2.75;;;1.77;;
39208;SDS011;24929;51.982;4.664;2022-09-09T06:39:05;3.75;;;1.85;;
39208;SDS011;24929;51.982;4.664;2022-09-09T06:41:31;11.02;;;2.97;;
39208;SDS011;24929;51.982;4.664;2022-09-09T06:43:57;2.58;;;1.90;;
39208;SDS011;24929;51.982;4.664;2022-09-09T06:46:23;3.57;;;2.00;;
39208;SDS011;24929;51.982;4.664;2022-09-09T06:48:52;3.75;;;2.25;;
39208;SDS011;24929;51.982;4.664;2022-09-09T06:51:20;4.45;;;2.55;;
39208;SDS011;24929;51.982;4.664;2022-09-09T06:53:52;3.28;;;2.15;;
39208;SDS011;24929;51.982;4.664;2022-09-09T06:58:50;6.57;;;3.00;;
39208;SDS011;24929;51.982;4.664;2022-09-09T07:01:16;6.75;;;2.88;;
39208;SDS011;24929;51.982;4.664;2022-09-09T07:03:42;3.42;;;2.45;;
39208;SDS011;24929;51.982;4.664;2022-09-09T07:06:13;6.40;;;4.05;;
39208;SDS011;24929;51.982;4.664;2022-09-09T07:08:39;3.75;;;2.70;;
39208;SDS011;24929;51.982;4.664;2022-09-09T07:11:05;7.13;;;3.10;;
39208;SDS011;24929;51.982;4.664;2022-09-09T07:13:31;5.20;;;2.78;;
39208;SDS011;24929;51.982;4.664;2022-09-09T07:16:07;5.22;;;2.95;;
39208;SDS011;24929;51.982;4.664;2022-09-09T07:18:32;3.03;;;2.50;;
39208;SDS011;24929;51.982;4.664;2022-09-09T07:20:58;8.38;;;3.60;;
39208;SDS011;24929;51.982;4.664;2022-09-09T07:23:24;4.28;;;2.88;;
39208;SDS011;24929;51.982;4.664;2022-09-09T07:25:49;2.65;;;2.45;;
39208;SDS011;24929;51.982;4.664;2022-09-09T07:28:15;7.30;;;3.40;;
39208;SDS011;24929;51.982;4.664;2022-09-09T07:30:40;4.25;;;2.80;;
39208;SDS011;24929;51.982;4.664;2022-09-09T07:33:06;4.97;;;2.95;;
39208;SDS011;24929;51.982;4.664;2022-09-09T07:35:31;6.47;;;3.75;;
39208;SDS011;24929;51.982;4.664;2022-09-09T07:37:56;8.32;;;3.45;;
39208;SDS011;24929;51.982;4.664;2022-09-09T07:40:22;12.32;;;3.83;;
39208;SDS011;24929;51.982;4.664;2022-09-09T07:42:48;6.68;;;3.53;;
39208;SDS011;24929;51.982;4.664;2022-09-09T07:45:13;10.43;;;4.28;;
39208;SDS011;24929;51.982;4.664;2022-09-09T07:47:39;8.93;;;4.05;;
39208;SDS011;24929;51.982;4.664;2022-09-09T07:50:04;8.10;;;3.30;;
39208;SDS011;24929;51.982;4.664;2022-09-09T07:52:30;3.75;;;2.85;;
39208;SDS011;24929;51.982;4.664;2022-09-09T07:54:55;3.60;;;3.30;;
39208;SDS011;24929;51.982;4.664;2022-09-09T07:57:22;6.25;;;3.20;;
39208;SDS011;24929;51.982;4.664;2022-09-09T07:59:47;5.22;;;3.50;;
39208;SDS011;24929;51.982;4.664;2022-09-09T08:02:12;3.90;;;3.40;;
39208;SDS011;24929;51.982;4.664;2022-09-09T08:04:37;7.33;;;3.70;;
39208;SDS011;24929;51.982;4.664;2022-09-09T08:07:02;4.67;;;3.23;;
39208;SDS011;24929;51.982;4.664;2022-09-09T08:09:28;8.32;;;3.95;;
39208;SDS011;24929;51.982;4.664;2022-09-09T08:11:55;3.60;;;3.15;;
39208;SDS011;24929;51.982;4.664;2022-09-09T08:14:21;6.82;;;3.45;;
39208;SDS011;24929;51.982;4.664;2022-09-09T08:16:47;7.28;;;4.03;;
39208;SDS011;24929;51.982;4.664;2022-09-09T08:19:13;6.78;;;3.53;;
39208;SDS011;24929;51.982;4.664;2022-09-09T08:21:40;4.82;;;3.53;;
39208;SDS011;24929;51.982;4.664;2022-09-09T08:24:06;5.50;;;3.10;;
39208;SDS011;24929;51.982;4.664;2022-09-09T08:26:33;5.45;;;2.97;;
39208;SDS011;24929;51.982;4.664;2022-09-09T08:28:59;5.25;;;2.90;;
39208;SDS011;24929;51.982;4.664;2022-09-09T08:31:35;5.38;;;2.97;;
39208;SDS011;24929;51.982;4.664;2022-09-09T08:34:02;5.15;;;2.58;;
39208;SDS011;24929;51.982;4.664;2022-09-09T08:36:29;5.75;;;2.45;;
39208;SDS011;24929;51.982;4.664;2022-09-09T08:38:55;3.65;;;1.90;;
39208;SDS011;24929;51.982;4.664;2022-09-09T08:46:55;2.42;;;1.98;;
39208;SDS011;24929;51.982;4.664;2022-09-09T08:52:30;4.88;;;2.67;;
39208;SDS011;24929;51.982;4.664;2022-09-09T08:54:55;4.32;;;2.50;;
39208;SDS011;24929;51.982;4.664;2022-09-09T08:57:23;4.85;;;2.83;;
39208;SDS011;24929;51.982;4.664;2022-09-09T08:59:51;4.65;;;2.75;;
39208;SDS011;24929;51.982;4.664;2022-09-09T09:02:31;5.25;;;2.55;;
39208;SDS011;24929;51.982;4.664;2022-09-09T09:12:41;4.97;;;3.33;;
39208;SDS011;24929;51.982;4.664;2022-09-09T09:15:14;7.45;;;2.97;;
39208;SDS011;24929;51.982;4.664;2022-09-09T09:17:42;5.22;;;2.83;;
39208;SDS011;24929;51.982;4.664;2022-09-09T09:20:11;7.57;;;2.85;;
39208;SDS011;24929;51.982;4.664;2022-09-09T09:22:41;6.10;;;2.78;;
39208;SDS011;24929;51.982;4.664;2022-09-09T09:25:14;8.63;;;3.15;;
39208;SDS011;24929;51.982;4.664;2022-09-09T09:30:16;4.50;;;3.03;;
39208;SDS011;24929;51.982;4.664;2022-09-09T09:32:43;5.47;;;2.95;;
39208;SDS011;24929;51.982;4.664;2022-09-09T09:35:11;6.97;;;2.95;;
39208;SDS011;24929;51.982;4.664;2022-09-09T09:37:37;3.97;;;2.90;;
39208;SDS011;24929;51.982;4.664;2022-09-09T09:40:12;6.25;;;2.83;;
39208;SDS011;24929;51.982;4.664;2022-09-09T09:42:37;5.10;;;2.72;;
39208;SDS011;24929;51.982;4.664;2022-09-09T09:45:07;3.67;;;2.85;;
39208;SDS011;24929;51.982;4.664;2022-09-09T09:47:32;13.75;;;3.38;;
39208;SDS011;24929;51.982;4.664;2022-09-09T09:49:58;5.50;;;3.17;;
39208;SDS011;24929;51.982;4.664;2022-09-09T09:52:28;4.45;;;2.75;;
39208;SDS011;24929;51.982;4.664;2022-09-09T09:54:53;3.65;;;2.47;;
39208;SDS011;24929;51.982;4.664;2022-09-09T09:57:22;4.32;;;2.75;;
39208;SDS011;24929;51.982;4.664;2022-09-09T09:59:59;4.07;;;2.67;;
39208;SDS011;24929;51.982;4.664;2022-09-09T10:02:25;4.13;;;2.80;;
39208;SDS011;24929;51.982;4.664;2022-09-09T10:05:04;4.88;;;2.65;;
39208;SDS011;24929;51.982;4.664;2022-09-09T10:07:30;4.25;;;2.38;;
39208;SDS011;24929;51.982;4.664;2022-09-09T10:09:57;2.88;;;2.35;;
39208;SDS011;24929;51.982;4.664;2022-09-09T10:22:44;2.10;;;1.87;;
39208;SDS011;24929;51.982;4.664;2022-09-09T10:25:22;7.13;;;2.72;;
39208;SDS011;24929;51.982;4.664;2022-09-09T10:30:21;5.88;;;1.90;;
39208;SDS011;24929;51.982;4.664;2022-09-09T10:38:17;3.38;;;1.70;;
39208;SDS011;24929;51.982;4.664;2022-09-09T10:40:46;3.72;;;2.10;;
39208;SDS011;24929;51.982;4.664;2022-09-09T10:53:49;3.55;;;2.20;;
39208;SDS011;24929;51.982;4.664;2022-09-09T10:56:17;4.93;;;2.60;;
39208;SDS011;24929;51.982;4.664;2022-09-09T11:01:31;4.90;;;2.08;;
39208;SDS011;24929;51.982;4.664;2022-09-09T11:04:02;2.95;;;2.28;;
39208;SDS011;24929;51.982;4.664;2022-09-09T11:06:30;5.20;;;2.88;;
39208;SDS011;24929;51.982;4.664;2022-09-09T11:09:00;7.05;;;2.47;;
39208;SDS011;24929;51.982;4.664;2022-09-09T11:11:37;2.72;;;1.70;;
39208;SDS011;24929;51.982;4.664;2022-09-09T11:14:14;3.58;;;2.10;;
39208;SDS011;24929;51.982;4.664;2022-09-09T11:16:42;3.22;;;1.95;;
39208;SDS011;24929;51.982;4.664;2022-09-09T11:21:50;3.28;;;2.03;;
39208;SDS011;24929;51.982;4.664;2022-09-09T11:26:53;2.35;;;2.10;;
39208;SDS011;24929;51.982;4.664;2022-09-09T11:39:56;2.13;;;1.92;;
39208;SDS011;24929;51.982;4.664;2022-09-09T11:42:25;3.75;;;2.70;;
39208;SDS011;24929;51.982;4.664;2022-09-09T11:44:51;3.90;;;2.05;;
39208;SDS011;24929;51.982;4.664;2022-09-09T11:47:22;3.53;;;2.75;;
39208;SDS011;24929;51.982;4.664;2022-09-09T11:49:51;5.85;;;2.75;;
39208;SDS011;24929;51.982;4.664;2022-09-09T11:52:24;4.70;;;2.50;;
39208;SDS011;24929;51.982;4.664;2022-09-09T11:54:54;9.95;;;2.85;;
39208;SDS011;24929;51.982;4.664;2022-09-09T11:57:24;4.22;;;2.72;;
39208;SDS011;24929;51.982;4.664;2022-09-09T11:59:50;6.43;;;3.03;;
39208;SDS011;24929;51.982;4.664;2022-09-09T12:02:27;5.60;;;2.85;;
39208;SDS011;24929;51.982;4.664;2022-09-09T12:07:36;4.43;;;3.00;;
39208;SDS011;24929;51.982;4.664;2022-09-09T12:12:35;3.88;;;3.28;;
39208;SDS011;24929;51.982;4.664;2022-09-09T12:17:36;2.95;;;2.75;;
39208;SDS011;24929;51.982;4.664;2022-09-09T12:28:08;4.70;;;2.95;;
39208;SDS011;24929;51.982;4.664;2022-09-09T12:30:37;5.43;;;3.20;;
39208;SDS011;24929;51.982;4.664;2022-09-09T12:33:15;5.13;;;2.97;;
39208;SDS011;24929;51.982;4.664;2022-09-09T12:35:41;3.28;;;2.97;;
39208;SDS011;24929;51.982;4.664;2022-09-09T12:38:09;7.85;;;2.95;;
39208;SDS011;24929;51.982;4.664;2022-09-09T12:40:37;3.15;;;2.85;;
39208;SDS011;24929;51.982;4.664;2022-09-09T12:43:20;3.85;;;2.90;;
39208;SDS011;24929;51.982;4.664;2022-09-09T12:45:46;6.43;;;2.65;;
39208;SDS011;24929;51.982;4.664;2022-09-09T12:48:11;6.30;;;2.42;;
39208;SDS011;24929;51.982;4.664;2022-09-09T12:50:44;4.20;;;2.47;;
39208;SDS011;24929;51.982;4.664;2022-09-09T12:53:12;3.00;;;2.47;;
39208;SDS011;24929;51.982;4.664;2022-09-09T12:55:48;2.65;;;2.30;;
39208;SDS011;24929;51.982;4.664;2022-09-09T12:58:14;6.97;;;2.58;;
39208;SDS011;24929;51.982;4.664;2022-09-09T13:00:48;2.38;;;2.17;;
39208;SDS011;24929;51.982;4.664;2022-09-09T13:03:18;3.58;;;2.88;;
39208;SDS011;24929;51.982;4.664;2022-09-09T13:05:45;5.60;;;2.22;;
39208;SDS011;24929;51.982;4.664;2022-09-09T13:08:12;5.05;;;2.28;;
39208;SDS011;24929;51.982;4.664;2022-09-09T13:11:00;3.17;;;1.60;;
39208;SDS011;24929;51.982;4.664;2022-09-09T13:13:28;3.08;;;2.47;;
39208;SDS011;24929;51.982;4.664;2022-09-09T13:15:58;2.90;;;2.00;;
39208;SDS011;24929;51.982;4.664;2022-09-09T13:18:26;3.08;;;2.15;;
39208;SDS011;24929;51.982;4.664;2022-09-09T13:20:52;3.05;;;2.13;;
39208;SDS011;24929;51.982;4.664;2022-09-09T13:23:18;3.92;;;2.10;;
39208;SDS011;24929;51.982;4.664;2022-09-09T13:25:57;4.55;;;2.45;;
39208;SDS011;24929;51.982;4.664;2022-09-09T13:28:25;2.65;;;2.40;;
39208;SDS011;24929;51.982;4.664;2022-09-09T13:31:03;2.42;;;2.13;;
39208;SDS011;24929;51.982;4.664;2022-09-09T13:33:34;3.30;;;2.17;;
39208;SDS011;24929;51.982;4.664;2022-09-09T13:36:01;5.78;;;2.42;;
39208;SDS011;24929;51.982;4.664;2022-09-09T13:38:28;3.90;;;2.63;;
39208;SDS011;24929;51.982;4.664;2022-09-09T13:40:55;3.58;;;2.67;;
39208;SDS011;24929;51.982;4.664;2022-09-09T13:43:22;2.88;;;2.63;;
39208;SDS011;24929;51.982;4.664;2022-09-09T13:45:58;8.00;;;2.53;;
39208;SDS011;24929;51.982;4.664;2022-09-09T13:48:24;2.53;;;1.95;;
39208;SDS011;24929;51.982;4.664;2022-09-09T13:50:56;3.00;;;2.33;;
39208;SDS011;24929;51.982;4.664;2022-09-09T13:55:47;2.00;;;1.67;;
39208;SDS011;24929;51.982;4.664;2022-09-09T13:58:15;2.08;;;1.40;;
39208;SDS011;24929;51.982;4.664;2022-09-09T14:00:43;2.30;;;1.58;;
39208;SDS011;24929;51.982;4.664;2022-09-09T14:03:09;2.38;;;1.55;;
39208;SDS011;24929;51.982;4.664;2022-09-09T14:05:35;2.28;;;1.10;;
39208;SDS011;24929;51.982;4.664;2022-09-09T14:08:00;2.15;;;0.95;;
39208;SDS011;24929;51.982;4.664;2022-09-09T14:10:28;3.13;;;1.10;;
39208;SDS011;24929;51.982;4.664;2022-09-09T14:12:53;1.30;;;1.20;;
39208;SDS011;24929;51.982;4.664;2022-09-09T14:15:18;2.50;;;1.27;;
39208;SDS011;24929;51.982;4.664;2022-09-09T14:17:45;1.65;;;1.02;;
39208;SDS011;24929;51.982;4.664;2022-09-09T14:20:10;8.13;;;1.27;;
39208;SDS011;24929;51.982;4.664;2022-09-09T14:22:36;2.20;;;1.45;;
39208;SDS011;24929;51.982;4.664;2022-09-09T14:25:02;3.40;;;1.63;;
39208;SDS011;24929;51.982;4.664;2022-09-09T14:27:27;1.85;;;1.30;;
39208;SDS011;24929;51.982;4.664;2022-09-09T14:29:53;2.50;;;1.70;;
39208;SDS011;24929;51.982;4.664;2022-09-09T14:32:19;1.70;;;1.60;;
39208;SDS011;24929;51.982;4.664;2022-09-09T14:34:44;2.90;;;2.60;;
39208;SDS011;24929;51.982;4.664;2022-09-09T14:37:10;2.53;;;2.08;;
39208;SDS011;24929;51.982;4.664;2022-09-09T14:39:35;2.20;;;1.85;;
39208;SDS011;24929;51.982;4.664;2022-09-09T14:42:01;4.50;;;2.63;;
39208;SDS011;24929;51.982;4.664;2022-09-09T14:44:27;2.65;;;1.77;;
39208;SDS011;24929;51.982;4.664;2022-09-09T14:46:52;4.28;;;2.13;;
39208;SDS011;24929;51.982;4.664;2022-09-09T14:49:22;1.98;;;1.83;;
39208;SDS011;24929;51.982;4.664;2022-09-09T14:51:47;2.63;;;2.15;;
39208;SDS011;24929;51.982;4.664;2022-09-09T14:54:13;2.80;;;1.88;;
39208;SDS011;24929;51.982;4.664;2022-09-09T14:56:39;1.90;;;1.58;;
39208;SDS011;24929;51.982;4.664;2022-09-09T14:59:05;2.15;;;1.67;;
39208;SDS011;24929;51.982;4.664;2022-09-09T15:01:30;1.73;;;1.23;;
39208;SDS011;24929;51.982;4.664;2022-09-09T15:04:00;1.48;;;1.38;;
39208;SDS011;24929;51.982;4.664;2022-09-09T15:06:26;5.55;;;2.53;;
39208;SDS011;24929;51.982;4.664;2022-09-09T15:08:52;1.55;;;1.25;;
39208;SDS011;24929;51.982;4.664;2022-09-09T15:11:18;2.67;;;1.60;;
39208;SDS011;24929;51.982;4.664;2022-09-09T15:13:43;2.05;;;1.40;;
39208;SDS011;24929;51.982;4.664;2022-09-09T15:16:13;3.25;;;1.48;;
39208;SDS011;24929;51.982;4.664;2022-09-09T15:18:38;3.30;;;1.40;;
39208;SDS011;24929;51.982;4.664;2022-09-09T15:21:14;2.90;;;1.00;;
39208;SDS011;24929;51.982;4.664;2022-09-09T15:23:40;2.35;;;1.23;;
39208;SDS011;24929;51.982;4.664;2022-09-09T15:26:05;6.80;;;1.58;;
39208;SDS011;24929;51.982;4.664;2022-09-09T15:28:31;1.67;;;0.82;;
39208;SDS011;24929;51.982;4.664;2022-09-09T15:30:57;3.28;;;1.10;;
39208;SDS011;24929;51.982;4.664;2022-09-09T15:33:23;4.18;;;1.20;;
39208;SDS011;24929;51.982;4.664;2022-09-09T15:35:48;3.67;;;1.23;;
39208;SDS011;24929;51.982;4.664;2022-09-09T15:38:14;1.10;;;0.93;;
39208;SDS011;24929;51.982;4.664;2022-09-09T15:40:41;2.10;;;1.38;;
39208;SDS011;24929;51.982;4.664;2022-09-09T15:43:06;3.05;;;2.15;;
39208;SDS011;24929;51.982;4.664;2022-09-09T15:45:32;1.85;;;1.60;;
39208;SDS011;24929;51.982;4.664;2022-09-09T15:47:58;2.35;;;1.60;;
39208;SDS011;24929;51.982;4.664;2022-09-09T15:50:23;2.28;;;1.98;;
39208;SDS011;24929;51.982;4.664;2022-09-09T15:52:49;4.00;;;1.77;;
39208;SDS011;24929;51.982;4.664;2022-09-09T15:55:14;4.70;;;2.10;;
39208;SDS011;24929;51.982;4.664;2022-09-09T15:57:39;4.38;;;2.50;;
39208;SDS011;24929;51.982;4.664;2022-09-09T16:00:05;5.93;;;1.80;;
39208;SDS011;24929;51.982;4.664;2022-09-09T16:02:31;5.85;;;2.55;;
39208;SDS011;24929;51.982;4.664;2022-09-09T16:04:57;3.45;;;2.42;;
39208;SDS011;24929;51.982;4.664;2022-09-09T16:07:23;3.23;;;2.87;;
39208;SDS011;24929;51.982;4.664;2022-09-09T16:09:48;4.72;;;3.10;;
39208;SDS011;24929;51.982;4.664;2022-09-09T16:12:16;5.85;;;3.13;;
39208;SDS011;24929;51.982;4.664;2022-09-09T16:14:41;6.10;;;3.95;;
39208;SDS011;24929;51.982;4.664;2022-09-09T16:17:07;4.80;;;3.73;;
39208;SDS011;24929;51.982;4.664;2022-09-09T16:19:32;5.05;;;3.53;;
39208;SDS011;24929;51.982;4.664;2022-09-09T16:21:57;4.22;;;3.35;;
39208;SDS011;24929;51.982;4.664;2022-09-09T16:24:23;4.38;;;2.92;;
39208;SDS011;24929;51.982;4.664;2022-09-09T16:29:30;4.32;;;2.60;;
39208;SDS011;24929;51.982;4.664;2022-09-09T16:31:57;5.45;;;2.58;;
39208;SDS011;24929;51.982;4.664;2022-09-09T16:34:23;5.97;;;3.13;;
39208;SDS011;24929;51.982;4.664;2022-09-09T16:36:48;6.85;;;2.80;;
39208;SDS011;24929;51.982;4.664;2022-09-09T16:39:14;5.50;;;3.65;;
39208;SDS011;24929;51.982;4.664;2022-09-09T16:41:40;4.50;;;3.35;;
39208;SDS011;24929;51.982;4.664;2022-09-09T16:44:08;3.30;;;2.50;;
39208;SDS011;24929;51.982;4.664;2022-09-09T16:46:35;4.88;;;2.30;;
39208;SDS011;24929;51.982;4.664;2022-09-09T16:49:01;4.30;;;2.53;;
39208;SDS011;24929;51.982;4.664;2022-09-09T16:51:45;5.75;;;2.85;;
39208;SDS011;24929;51.982;4.664;2022-09-09T16:54:12;2.90;;;2.58;;
39208;SDS011;24929;51.982;4.664;2022-09-09T16:56:39;5.70;;;3.13;;
39208;SDS011;24929;51.982;4.664;2022-09-09T16:59:08;5.40;;;3.10;;
39208;SDS011;24929;51.982;4.664;2022-09-09T17:01:35;3.33;;;2.88;;
39208;SDS011;24929;51.982;4.664;2022-09-09T17:12:41;3.83;;;2.65;;
39208;SDS011;24929;51.982;4.664;2022-09-09T17:15:08;5.10;;;2.75;;